sensor_id;sensor_type;location;lat;lon;timestamp;temperature;humidity
27314;DHT22;14800;48.174;9.798;2022-11-20T00:01:23;6.70;81.20
27314;DHT22;14800;48.174;9.798;2022-11-20T00:03:50;6.70;81.20
27314;DHT22;14800;48.174;9.798;2022-11-20T00:06:17;6.60;81.10
27314;DHT22;14800;48.174;9.798;2022-11-20T00:08:44;6.60;81.40
27314;DHT22;14800;48.174;9.798;2022-11-20T00:11:13;6.60;81.40
27314;DHT22;14800;48.174;9.798;2022-11-20T00:13:39;6.60;81.60
27314;DHT22;14800;48.174;9.798;2022-11-20T00:16:07;6.50;81.60
27314;DHT22;14800;48.174;9.798;2022-11-20T00:18:33;6.50;81.80
27314;DHT22;14800;48.174;9.798;2022-11-20T00:21:20;6.50;82.00
27314;DHT22;14800;48.174;9.798;2022-11-20T00:23:46;6.40;82.30
27314;DHT22;14800;48.174;9.798;2022-11-20T00:26:16;6.40;82.20
27314;DHT22;14800;48.174;9.798;2022-11-20T00:28:43;6.40;82.30
27314;DHT22;14800;48.174;9.798;2022-11-20T00:31:13;6.40;82.30
27314;DHT22;14800;48.174;9.798;2022-11-20T00:33:40;6.30;82.30
27314;DHT22;14800;48.174;9.798;2022-11-20T00:36:14;6.40;82.40
27314;DHT22;14800;48.174;9.798;2022-11-20T00:38:40;6.40;82.50
27314;DHT22;14800;48.174;9.798;2022-11-20T00:41:08;6.30;82.30
27314;DHT22;14800;48.174;9.798;2022-11-20T00:43:34;6.30;82.30
27314;DHT22;14800;48.174;9.798;2022-11-20T00:46:02;6.30;82.30
27314;DHT22;14800;48.174;9.798;2022-11-20T00:48:28;6.30;82.30
27314;DHT22;14800;48.174;9.798;2022-11-20T00:50:54;6.30;82.30
27314;DHT22;14800;48.174;9.798;2022-11-20T00:53:20;6.30;82.30
27314;DHT22;14800;48.174;9.798;2022-11-20T00:56:06;6.30;82.30
27314;DHT22;14800;48.174;9.798;2022-11-20T00:58:34;6.30;82.60
27314;DHT22;14800;48.174;9.798;2022-11-20T01:01:11;6.20;82.30
27314;DHT22;14800;48.174;9.798;2022-11-20T01:03:39;6.20;82.50
27314;DHT22;14800;48.174;9.798;2022-11-20T01:06:12;6.20;82.50
27314;DHT22;14800;48.174;9.798;2022-11-20T01:08:38;6.20;82.60
27314;DHT22;14800;48.174;9.798;2022-11-20T01:11:27;6.20;82.60
27314;DHT22;14800;48.174;9.798;2022-11-20T01:13:53;6.20;82.60
27314;DHT22;14800;48.174;9.798;2022-11-20T01:18:51;6.20;82.90
27314;DHT22;14800;48.174;9.798;2022-11-20T01:21:20;6.20;82.80
27314;DHT22;14800;48.174;9.798;2022-11-20T01:23:46;6.20;82.80
27314;DHT22;14800;48.174;9.798;2022-11-20T01:26:18;6.20;82.90
27314;DHT22;14800;48.174;9.798;2022-11-20T01:28:44;6.20;83.00
27314;DHT22;14800;48.174;9.798;2022-11-20T01:31:12;6.20;83.00
27314;DHT22;14800;48.174;9.798;2022-11-20T01:33:40;6.20;83.10
27314;DHT22;14800;48.174;9.798;2022-11-20T01:36:06;6.20;83.10
27314;DHT22;14800;48.174;9.798;2022-11-20T01:38:32;6.20;83.00
27314;DHT22;14800;48.174;9.798;2022-11-20T01:40:58;6.20;83.10
27314;DHT22;14800;48.174;9.798;2022-11-20T01:43:24;6.20;83.10
27314;DHT22;14800;48.174;9.798;2022-11-20T01:51:17;6.20;83.10
27314;DHT22;14800;48.174;9.798;2022-11-20T01:53:44;6.20;83.10
27314;DHT22;14800;48.174;9.798;2022-11-20T01:56:12;6.20;83.00
27314;DHT22;14800;48.174;9.798;2022-11-20T01:58:44;6.20;83.10
27314;DHT22;14800;48.174;9.798;2022-11-20T02:01:12;6.20;83.20
27314;DHT22;14800;48.174;9.798;2022-11-20T02:03:38;6.20;83.20
27314;DHT22;14800;48.174;9.798;2022-11-20T02:08:33;6.30;83.30
27314;DHT22;14800;48.174;9.798;2022-11-20T02:10:59;6.30;83.50
27314;DHT22;14800;48.174;9.798;2022-11-20T02:13:24;6.30;83.60
27314;DHT22;14800;48.174;9.798;2022-11-20T02:18:43;6.30;83.90
27314;DHT22;14800;48.174;9.798;2022-11-20T02:24:15;6.30;84.00
27314;DHT22;14800;48.174;9.798;2022-11-20T02:26:54;6.30;83.70
27314;DHT22;14800;48.174;9.798;2022-11-20T02:29:48;6.40;83.90
27314;DHT22;14800;48.174;9.798;2022-11-20T02:32:19;6.40;83.90
27314;DHT22;14800;48.174;9.798;2022-11-20T02:34:45;6.40;83.90
27314;DHT22;14800;48.174;9.798;2022-11-20T02:37:10;6.40;83.80
27314;DHT22;14800;48.174;9.798;2022-11-20T02:39:36;6.40;83.70
27314;DHT22;14800;48.174;9.798;2022-11-20T02:42:02;6.40;83.70
27314;DHT22;14800;48.174;9.798;2022-11-20T02:44:28;6.50;83.80
27314;DHT22;14800;48.174;9.798;2022-11-20T02:46:56;6.50;83.80
27314;DHT22;14800;48.174;9.798;2022-11-20T02:49:22;6.50;83.70
27314;DHT22;14800;48.174;9.798;2022-11-20T02:51:47;6.50;83.80
27314;DHT22;14800;48.174;9.798;2022-11-20T02:54:13;6.50;83.70
27314;DHT22;14800;48.174;9.798;2022-11-20T02:56:39;6.60;83.70
27314;DHT22;14800;48.174;9.798;2022-11-20T02:59:05;6.50;83.40
27314;DHT22;14800;48.174;9.798;2022-11-20T03:01:31;6.60;83.40
27314;DHT22;14800;48.174;9.798;2022-11-20T03:03:56;6.60;83.30
27314;DHT22;14800;48.174;9.798;2022-11-20T03:06:22;6.60;83.30
27314;DHT22;14800;48.174;9.798;2022-11-20T03:08:47;6.60;83.20
27314;DHT22;14800;48.174;9.798;2022-11-20T03:11:13;6.60;83.20
27314;DHT22;14800;48.174;9.798;2022-11-20T03:13:39;6.60;83.10
27314;DHT22;14800;48.174;9.798;2022-11-20T03:16:13;6.60;83.10
27314;DHT22;14800;48.174;9.798;2022-11-20T03:18:40;6.60;83.20
27314;DHT22;14800;48.174;9.798;2022-11-20T03:21:06;6.60;83.20
27314;DHT22;14800;48.174;9.798;2022-11-20T03:23:32;6.60;83.10
27314;DHT22;14800;48.174;9.798;2022-11-20T03:26:32;6.60;83.20
27314;DHT22;14800;48.174;9.798;2022-11-20T03:29:00;6.60;83.30
27314;DHT22;14800;48.174;9.798;2022-11-20T03:31:28;6.60;83.20
27314;DHT22;14800;48.174;9.798;2022-11-20T03:33:56;6.60;83.30
27314;DHT22;14800;48.174;9.798;2022-11-20T03:36:22;6.60;83.30
27314;DHT22;14800;48.174;9.798;2022-11-20T03:38:48;6.60;83.30
27314;DHT22;14800;48.174;9.798;2022-11-20T03:41:28;6.60;83.30
27314;DHT22;14800;48.174;9.798;2022-11-20T03:43:57;6.60;83.50
27314;DHT22;14800;48.174;9.798;2022-11-20T03:46:23;6.60;84.20
27314;DHT22;14800;48.174;9.798;2022-11-20T03:48:49;6.60;83.40
27314;DHT22;14800;48.174;9.798;2022-11-20T03:51:20;6.60;83.50
27314;DHT22;14800;48.174;9.798;2022-11-20T03:53:47;6.50;83.60
27314;DHT22;14800;48.174;9.798;2022-11-20T03:56:15;6.50;83.70
27314;DHT22;14800;48.174;9.798;2022-11-20T03:58:42;6.50;83.70
27314;DHT22;14800;48.174;9.798;2022-11-20T04:01:13;6.50;83.70
27314;DHT22;14800;48.174;9.798;2022-11-20T04:03:41;6.50;83.90
27314;DHT22;14800;48.174;9.798;2022-11-20T04:06:12;6.50;83.90
27314;DHT22;14800;48.174;9.798;2022-11-20T04:08:39;6.60;84.00
27314;DHT22;14800;48.174;9.798;2022-11-20T04:11:12;6.60;84.00
27314;DHT22;14800;48.174;9.798;2022-11-20T04:13:38;6.60;84.00
27314;DHT22;14800;48.174;9.798;2022-11-20T04:16:05;6.60;84.00
27314;DHT22;14800;48.174;9.798;2022-11-20T04:18:31;6.60;84.00
27314;DHT22;14800;48.174;9.798;2022-11-20T04:20:57;6.60;83.90
27314;DHT22;14800;48.174;9.798;2022-11-20T04:23:23;6.60;83.80
27314;DHT22;14800;48.174;9.798;2022-11-20T04:25:49;6.60;83.80
27314;DHT22;14800;48.174;9.798;2022-11-20T04:28:15;6.60;83.80
27314;DHT22;14800;48.174;9.798;2022-11-20T04:30:40;6.60;83.80
27314;DHT22;14800;48.174;9.798;2022-11-20T04:33:06;6.60;83.70
27314;DHT22;14800;48.174;9.798;2022-11-20T04:35:34;6.60;83.70
27314;DHT22;14800;48.174;9.798;2022-11-20T04:38:00;6.60;83.80
27314;DHT22;14800;48.174;9.798;2022-11-20T04:40:25;6.60;83.70
27314;DHT22;14800;48.174;9.798;2022-11-20T04:42:51;6.60;83.80
27314;DHT22;14800;48.174;9.798;2022-11-20T04:45:16;6.60;83.80
27314;DHT22;14800;48.174;9.798;2022-11-20T04:47:42;6.60;83.90
27314;DHT22;14800;48.174;9.798;2022-11-20T04:50:08;6.60;83.90
27314;DHT22;14800;48.174;9.798;2022-11-20T04:52:34;6.60;83.90
27314;DHT22;14800;48.174;9.798;2022-11-20T04:54:59;6.60;83.90
27314;DHT22;14800;48.174;9.798;2022-11-20T04:57:25;6.70;84.00
27314;DHT22;14800;48.174;9.798;2022-11-20T04:59:50;6.70;83.90
27314;DHT22;14800;48.174;9.798;2022-11-20T05:02:16;6.60;83.80
27314;DHT22;14800;48.174;9.798;2022-11-20T05:04:41;6.60;83.90
27314;DHT22;14800;48.174;9.798;2022-11-20T05:07:07;6.60;84.00
27314;DHT22;14800;48.174;9.798;2022-11-20T05:09:33;6.60;84.10
27314;DHT22;14800;48.174;9.798;2022-11-20T05:11:58;6.60;84.10
27314;DHT22;14800;48.174;9.798;2022-11-20T05:14:24;6.60;84.10
27314;DHT22;14800;48.174;9.798;2022-11-20T05:16:49;6.60;84.10
27314;DHT22;14800;48.174;9.798;2022-11-20T05:19:15;6.70;84.10
27314;DHT22;14800;48.174;9.798;2022-11-20T05:21:41;6.70;84.10
27314;DHT22;14800;48.174;9.798;2022-11-20T05:24:06;6.70;84.00
27314;DHT22;14800;48.174;9.798;2022-11-20T05:26:32;6.70;84.00
27314;DHT22;14800;48.174;9.798;2022-11-20T05:28:58;6.70;83.90
27314;DHT22;14800;48.174;9.798;2022-11-20T05:31:24;6.70;83.90
27314;DHT22;14800;48.174;9.798;2022-11-20T05:33:50;6.80;83.90
27314;DHT22;14800;48.174;9.798;2022-11-20T05:36:16;6.70;83.70
27314;DHT22;14800;48.174;9.798;2022-11-20T05:38:43;6.70;83.60
27314;DHT22;14800;48.174;9.798;2022-11-20T05:41:15;6.80;83.70
27314;DHT22;14800;48.174;9.798;2022-11-20T05:43:43;6.80;83.60
27314;DHT22;14800;48.174;9.798;2022-11-20T05:46:10;6.80;83.60
27314;DHT22;14800;48.174;9.798;2022-11-20T05:48:37;6.70;83.60
27314;DHT22;14800;48.174;9.798;2022-11-20T05:51:05;6.80;83.60
27314;DHT22;14800;48.174;9.798;2022-11-20T05:53:32;6.70;83.60
27314;DHT22;14800;48.174;9.798;2022-11-20T05:56:00;6.70;83.60
27314;DHT22;14800;48.174;9.798;2022-11-20T05:58:25;6.70;83.70
27314;DHT22;14800;48.174;9.798;2022-11-20T06:00:51;6.70;83.80
27314;DHT22;14800;48.174;9.798;2022-11-20T06:03:17;6.70;83.80
27314;DHT22;14800;48.174;9.798;2022-11-20T06:05:42;6.70;83.70
27314;DHT22;14800;48.174;9.798;2022-11-20T06:08:08;6.70;83.60
27314;DHT22;14800;48.174;9.798;2022-11-20T06:10:33;6.70;83.60
27314;DHT22;14800;48.174;9.798;2022-11-20T06:12:59;6.70;83.70
27314;DHT22;14800;48.174;9.798;2022-11-20T06:15:25;6.70;83.70
27314;DHT22;14800;48.174;9.798;2022-11-20T06:17:54;6.60;83.60
27314;DHT22;14800;48.174;9.798;2022-11-20T06:20:21;6.60;83.60
27314;DHT22;14800;48.174;9.798;2022-11-20T06:22:46;6.60;83.60
27314;DHT22;14800;48.174;9.798;2022-11-20T06:25:12;6.60;83.70
27314;DHT22;14800;48.174;9.798;2022-11-20T06:27:38;6.50;83.70
27314;DHT22;14800;48.174;9.798;2022-11-20T06:30:04;6.50;83.70
27314;DHT22;14800;48.174;9.798;2022-11-20T06:32:30;6.50;83.80
27314;DHT22;14800;48.174;9.798;2022-11-20T06:34:55;6.50;83.90
27314;DHT22;14800;48.174;9.798;2022-11-20T06:37:21;6.50;83.90
27314;DHT22;14800;48.174;9.798;2022-11-20T06:39:46;6.40;83.90
27314;DHT22;14800;48.174;9.798;2022-11-20T06:42:12;6.40;84.00
27314;DHT22;14800;48.174;9.798;2022-11-20T06:44:37;6.40;84.10
27314;DHT22;14800;48.174;9.798;2022-11-20T06:47:03;6.50;84.20
27314;DHT22;14800;48.174;9.798;2022-11-20T06:49:29;6.50;84.20
27314;DHT22;14800;48.174;9.798;2022-11-20T06:51:54;6.50;84.20
27314;DHT22;14800;48.174;9.798;2022-11-20T06:54:20;6.50;84.30
27314;DHT22;14800;48.174;9.798;2022-11-20T06:56:48;6.50;84.20
27314;DHT22;14800;48.174;9.798;2022-11-20T06:59:14;6.50;84.30
27314;DHT22;14800;48.174;9.798;2022-11-20T07:01:40;6.50;84.20
27314;DHT22;14800;48.174;9.798;2022-11-20T07:04:05;6.50;84.20
27314;DHT22;14800;48.174;9.798;2022-11-20T07:06:31;6.50;84.30
27314;DHT22;14800;48.174;9.798;2022-11-20T07:08:57;6.50;84.20
27314;DHT22;14800;48.174;9.798;2022-11-20T07:11:22;6.50;84.30
27314;DHT22;14800;48.174;9.798;2022-11-20T07:13:49;6.50;84.30
27314;DHT22;14800;48.174;9.798;2022-11-20T07:16:15;6.60;84.40
27314;DHT22;14800;48.174;9.798;2022-11-20T07:18:40;6.50;84.30
27314;DHT22;14800;48.174;9.798;2022-11-20T07:21:08;6.60;84.40
27314;DHT22;14800;48.174;9.798;2022-11-20T07:23:35;6.60;84.20
27314;DHT22;14800;48.174;9.798;2022-11-20T07:26:09;6.60;84.10
27314;DHT22;14800;48.174;9.798;2022-11-20T07:28:35;6.60;84.00
27314;DHT22;14800;48.174;9.798;2022-11-20T07:31:01;6.60;84.00
27314;DHT22;14800;48.174;9.798;2022-11-20T07:33:27;6.70;84.10
27314;DHT22;14800;48.174;9.798;2022-11-20T07:35:52;6.70;84.00
27314;DHT22;14800;48.174;9.798;2022-11-20T07:38:18;6.70;83.90
27314;DHT22;14800;48.174;9.798;2022-11-20T07:40:44;6.70;83.80
27314;DHT22;14800;48.174;9.798;2022-11-20T07:43:09;6.80;83.80
27314;DHT22;14800;48.174;9.798;2022-11-20T07:45:35;6.70;83.70
27314;DHT22;14800;48.174;9.798;2022-11-20T07:48:01;6.80;83.80
27314;DHT22;14800;48.174;9.798;2022-11-20T07:50:26;6.70;83.80
27314;DHT22;14800;48.174;9.798;2022-11-20T07:52:52;6.70;83.80
27314;DHT22;14800;48.174;9.798;2022-11-20T07:55:18;6.80;84.00
27314;DHT22;14800;48.174;9.798;2022-11-20T07:57:43;6.80;84.00
27314;DHT22;14800;48.174;9.798;2022-11-20T08:00:10;6.80;84.00
27314;DHT22;14800;48.174;9.798;2022-11-20T08:02:40;6.80;84.00
27314;DHT22;14800;48.174;9.798;2022-11-20T08:05:06;6.80;84.00
27314;DHT22;14800;48.174;9.798;2022-11-20T08:07:39;6.80;84.00
27314;DHT22;14800;48.174;9.798;2022-11-20T08:10:06;6.90;84.30
27314;DHT22;14800;48.174;9.798;2022-11-20T08:12:32;6.90;84.30
27314;DHT22;14800;48.174;9.798;2022-11-20T08:15:16;6.90;84.30
27314;DHT22;14800;48.174;9.798;2022-11-20T08:17:42;7.00;84.30
27314;DHT22;14800;48.174;9.798;2022-11-20T08:20:08;7.00;84.50
27314;DHT22;14800;48.174;9.798;2022-11-20T08:22:34;7.00;84.40
27314;DHT22;14800;48.174;9.798;2022-11-20T08:25:00;7.10;84.50
27314;DHT22;14800;48.174;9.798;2022-11-20T08:27:25;7.10;84.40
27314;DHT22;14800;48.174;9.798;2022-11-20T08:29:51;7.10;84.30
27314;DHT22;14800;48.174;9.798;2022-11-20T08:32:17;7.10;84.20
27314;DHT22;14800;48.174;9.798;2022-11-20T08:34:42;7.10;84.20
27314;DHT22;14800;48.174;9.798;2022-11-20T08:37:08;7.20;84.30
27314;DHT22;14800;48.174;9.798;2022-11-20T08:39:34;7.20;84.10
27314;DHT22;14800;48.174;9.798;2022-11-20T08:41:59;7.30;84.10
27314;DHT22;14800;48.174;9.798;2022-11-20T08:44:25;7.30;84.00
27314;DHT22;14800;48.174;9.798;2022-11-20T08:46:50;7.30;84.00
27314;DHT22;14800;48.174;9.798;2022-11-20T08:49:16;7.30;83.90
27314;DHT22;14800;48.174;9.798;2022-11-20T08:51:42;7.30;83.80
27314;DHT22;14800;48.174;9.798;2022-11-20T08:54:08;7.40;83.80
27314;DHT22;14800;48.174;9.798;2022-11-20T08:56:34;7.40;83.80
27314;DHT22;14800;48.174;9.798;2022-11-20T08:59:00;7.40;83.60
27314;DHT22;14800;48.174;9.798;2022-11-20T09:01:26;7.50;83.70
27314;DHT22;14800;48.174;9.798;2022-11-20T09:03:52;7.50;83.60
27314;DHT22;14800;48.174;9.798;2022-11-20T09:06:20;7.50;83.60
27314;DHT22;14800;48.174;9.798;2022-11-20T09:08:45;7.60;83.40
27314;DHT22;14800;48.174;9.798;2022-11-20T09:11:11;7.60;83.30
27314;DHT22;14800;48.174;9.798;2022-11-20T09:13:37;7.60;82.90
27314;DHT22;14800;48.174;9.798;2022-11-20T09:16:05;7.70;82.70
27314;DHT22;14800;48.174;9.798;2022-11-20T09:18:31;7.70;82.70
27314;DHT22;14800;48.174;9.798;2022-11-20T09:21:03;7.70;82.80
27314;DHT22;14800;48.174;9.798;2022-11-20T09:23:34;7.70;82.70
27314;DHT22;14800;48.174;9.798;2022-11-20T09:26:26;7.80;82.60
27314;DHT22;14800;48.174;9.798;2022-11-20T09:28:52;7.80;82.30
27314;DHT22;14800;48.174;9.798;2022-11-20T09:31:22;7.80;82.60
27314;DHT22;14800;48.174;9.798;2022-11-20T09:33:48;7.90;82.20
27314;DHT22;14800;48.174;9.798;2022-11-20T09:36:14;7.90;82.20
27314;DHT22;14800;48.174;9.798;2022-11-20T09:38:39;8.00;82.20
27314;DHT22;14800;48.174;9.798;2022-11-20T09:41:10;8.00;82.00
27314;DHT22;14800;48.174;9.798;2022-11-20T09:46:55;8.10;81.50
27314;DHT22;14800;48.174;9.798;2022-11-20T09:49:36;8.10;81.60
27314;DHT22;14800;48.174;9.798;2022-11-20T09:52:14;8.10;81.50
27314;DHT22;14800;48.174;9.798;2022-11-20T09:54:44;8.10;81.50
27314;DHT22;14800;48.174;9.798;2022-11-20T09:57:21;8.20;81.50
27314;DHT22;14800;48.174;9.798;2022-11-20T09:59:55;8.20;81.20
27314;DHT22;14800;48.174;9.798;2022-11-20T10:05:39;8.20;81.00
27314;DHT22;14800;48.174;9.798;2022-11-20T10:08:26;8.30;81.00
27314;DHT22;14800;48.174;9.798;2022-11-20T10:11:59;8.30;81.20
27314;DHT22;14800;48.174;9.798;2022-11-20T10:14:25;8.40;81.90
27314;DHT22;14800;48.174;9.798;2022-11-20T10:17:16;8.40;81.10
27314;DHT22;14800;48.174;9.798;2022-11-20T10:25:19;8.50;80.50
27314;DHT22;14800;48.174;9.798;2022-11-20T10:28:14;8.50;80.30
27314;DHT22;14800;48.174;9.798;2022-11-20T10:30:43;8.50;79.90
27314;DHT22;14800;48.174;9.798;2022-11-20T10:38:34;8.50;80.20
27314;DHT22;14800;48.174;9.798;2022-11-20T10:40:59;8.50;80.10
27314;DHT22;14800;48.174;9.798;2022-11-20T10:43:45;8.60;80.20
27314;DHT22;14800;48.174;9.798;2022-11-20T10:46:17;8.60;80.10
27314;DHT22;14800;48.174;9.798;2022-11-20T10:48:44;8.60;79.60
27314;DHT22;14800;48.174;9.798;2022-11-20T10:52:04;8.60;80.00
27314;DHT22;14800;48.174;9.798;2022-11-20T10:54:41;8.60;79.30
27314;DHT22;14800;48.174;9.798;2022-11-20T11:00:17;8.70;79.50
27314;DHT22;14800;48.174;9.798;2022-11-20T11:02:47;8.70;79.90
27314;DHT22;14800;48.174;9.798;2022-11-20T11:05:24;8.70;79.90
27314;DHT22;14800;48.174;9.798;2022-11-20T11:07:54;8.60;79.60
27314;DHT22;14800;48.174;9.798;2022-11-20T11:13:07;8.70;79.80
27314;DHT22;14800;48.174;9.798;2022-11-20T11:15:37;8.70;79.80
27314;DHT22;14800;48.174;9.798;2022-11-20T11:18:03;8.70;79.70
27314;DHT22;14800;48.174;9.798;2022-11-20T11:20:29;8.70;79.80
27314;DHT22;14800;48.174;9.798;2022-11-20T11:22:57;8.70;79.70
27314;DHT22;14800;48.174;9.798;2022-11-20T11:27:50;8.70;80.50
27314;DHT22;14800;48.174;9.798;2022-11-20T11:30:19;8.70;79.80
27314;DHT22;14800;48.174;9.798;2022-11-20T11:32:45;8.70;79.60
27314;DHT22;14800;48.174;9.798;2022-11-20T11:35:26;8.70;79.60
27314;DHT22;14800;48.174;9.798;2022-11-20T11:37:54;8.70;79.40
27314;DHT22;14800;48.174;9.798;2022-11-20T11:40:21;8.80;79.60
27314;DHT22;14800;48.174;9.798;2022-11-20T11:43:03;8.70;79.40
27314;DHT22;14800;48.174;9.798;2022-11-20T11:45:29;8.80;79.40
27314;DHT22;14800;48.174;9.798;2022-11-20T11:48:00;8.70;79.40
27314;DHT22;14800;48.174;9.798;2022-11-20T11:50:29;8.80;79.50
27314;DHT22;14800;48.174;9.798;2022-11-20T11:53:14;8.70;79.60
27314;DHT22;14800;48.174;9.798;2022-11-20T11:55:44;8.70;79.70
27314;DHT22;14800;48.174;9.798;2022-11-20T12:01:37;8.80;79.80
27314;DHT22;14800;48.174;9.798;2022-11-20T12:03:38;8.80;80.00
27314;DHT22;14800;48.174;9.798;2022-11-20T12:06:13;8.70;80.00
27314;DHT22;14800;48.174;9.798;2022-11-20T12:11:16;8.80;80.00
27314;DHT22;14800;48.174;9.798;2022-11-20T12:16:27;8.80;79.90
27314;DHT22;14800;48.174;9.798;2022-11-20T12:18:53;8.80;80.00
27314;DHT22;14800;48.174;9.798;2022-11-20T12:30:15;8.80;80.00
27314;DHT22;14800;48.174;9.798;2022-11-20T12:43:46;8.90;79.80
27314;DHT22;14800;48.174;9.798;2022-11-20T12:46:44;8.90;79.80
27314;DHT22;14800;48.174;9.798;2022-11-20T12:49:29;8.90;79.80
27314;DHT22;14800;48.174;9.798;2022-11-20T12:52:20;8.90;79.60
27314;DHT22;14800;48.174;9.798;2022-11-20T13:00:20;8.90;78.60
27314;DHT22;14800;48.174;9.798;2022-11-20T13:03:01;8.90;78.60
27314;DHT22;14800;48.174;9.798;2022-11-20T13:05:37;8.90;78.20
27314;DHT22;14800;48.174;9.798;2022-11-20T13:08:11;8.90;79.00
27314;DHT22;14800;48.174;9.798;2022-11-20T13:18:39;8.80;78.20
27314;DHT22;14800;48.174;9.798;2022-11-20T13:21:39;8.80;78.30
27314;DHT22;14800;48.174;9.798;2022-11-20T13:24:06;8.80;78.10
27314;DHT22;14800;48.174;9.798;2022-11-20T13:26:32;8.80;78.20
27314;DHT22;14800;48.174;9.798;2022-11-20T13:29:16;8.80;78.40
27314;DHT22;14800;48.174;9.798;2022-11-20T13:31:47;8.80;78.20
27314;DHT22;14800;48.174;9.798;2022-11-20T13:34:23;8.80;78.40
27314;DHT22;14800;48.174;9.798;2022-11-20T13:36:54;8.80;78.40
27314;DHT22;14800;48.174;9.798;2022-11-20T13:39:28;8.70;78.40
27314;DHT22;14800;48.174;9.798;2022-11-20T13:41:56;8.70;78.30
27314;DHT22;14800;48.174;9.798;2022-11-20T13:44:37;8.80;78.60
27314;DHT22;14800;48.174;9.798;2022-11-20T13:47:04;8.80;78.60
27314;DHT22;14800;48.174;9.798;2022-11-20T13:49:42;8.80;78.70
27314;DHT22;14800;48.174;9.798;2022-11-20T13:52:37;8.80;78.80
27314;DHT22;14800;48.174;9.798;2022-11-20T13:55:40;8.80;78.70
27314;DHT22;14800;48.174;9.798;2022-11-20T13:58:27;8.90;78.60
27314;DHT22;14800;48.174;9.798;2022-11-20T14:01:05;9.00;78.60
27314;DHT22;14800;48.174;9.798;2022-11-20T14:03:33;9.00;78.80
27314;DHT22;14800;48.174;9.798;2022-11-20T14:06:03;9.00;78.60
27314;DHT22;14800;48.174;9.798;2022-11-20T14:08:38;9.10;78.50
27314;DHT22;14800;48.174;9.798;2022-11-20T14:11:27;9.10;78.40
27314;DHT22;14800;48.174;9.798;2022-11-20T14:16:22;9.10;78.60
27314;DHT22;14800;48.174;9.798;2022-11-20T14:18:48;9.20;78.50
27314;DHT22;14800;48.174;9.798;2022-11-20T14:23:49;9.20;78.20
27314;DHT22;14800;48.174;9.798;2022-11-20T14:26:18;9.20;78.40
27314;DHT22;14800;48.174;9.798;2022-11-20T14:28:49;9.20;78.50
27314;DHT22;14800;48.174;9.798;2022-11-20T14:31:24;9.20;78.70
27314;DHT22;14800;48.174;9.798;2022-11-20T14:33:52;9.20;78.90
27314;DHT22;14800;48.174;9.798;2022-11-20T14:36:21;9.20;79.30
27314;DHT22;14800;48.174;9.798;2022-11-20T14:38:47;9.20;79.50
27314;DHT22;14800;48.174;9.798;2022-11-20T14:41:21;9.20;79.60
27314;DHT22;14800;48.174;9.798;2022-11-20T14:43:57;9.20;79.60
27314;DHT22;14800;48.174;9.798;2022-11-20T14:46:23;9.20;79.80
27314;DHT22;14800;48.174;9.798;2022-11-20T14:48:54;9.20;79.40
27314;DHT22;14800;48.174;9.798;2022-11-20T14:51:32;9.10;78.50
27314;DHT22;14800;48.174;9.798;2022-11-20T14:54:12;8.90;78.70
27314;DHT22;14800;48.174;9.798;2022-11-20T14:56:39;8.80;79.10
27314;DHT22;14800;48.174;9.798;2022-11-20T14:59:05;8.70;79.30
27314;DHT22;14800;48.174;9.798;2022-11-20T15:01:32;8.60;79.70
27314;DHT22;14800;48.174;9.798;2022-11-20T15:04:01;8.50;79.70
27314;DHT22;14800;48.174;9.798;2022-11-20T15:06:27;8.50;80.10
27314;DHT22;14800;48.174;9.798;2022-11-20T15:08:53;8.40;80.20
27314;DHT22;14800;48.174;9.798;2022-11-20T15:11:22;8.40;80.50
27314;DHT22;14800;48.174;9.798;2022-11-20T15:13:51;8.40;80.60
27314;DHT22;14800;48.174;9.798;2022-11-20T15:16:20;8.40;80.80
27314;DHT22;14800;48.174;9.798;2022-11-20T15:18:47;8.40;81.20
27314;DHT22;14800;48.174;9.798;2022-11-20T15:21:18;8.40;81.10
27314;DHT22;14800;48.174;9.798;2022-11-20T15:23:45;8.40;81.30
27314;DHT22;14800;48.174;9.798;2022-11-20T15:26:12;8.40;81.50
27314;DHT22;14800;48.174;9.798;2022-11-20T15:28:43;8.40;81.50
27314;DHT22;14800;48.174;9.798;2022-11-20T15:31:15;8.30;81.50
27314;DHT22;14800;48.174;9.798;2022-11-20T15:33:41;8.30;81.30
27314;DHT22;14800;48.174;9.798;2022-11-20T15:36:08;8.30;81.30
27314;DHT22;14800;48.174;9.798;2022-11-20T15:38:34;8.30;81.30
27314;DHT22;14800;48.174;9.798;2022-11-20T15:40:59;8.30;81.30
27314;DHT22;14800;48.174;9.798;2022-11-20T15:43:25;8.30;81.30
27314;DHT22;14800;48.174;9.798;2022-11-20T15:48:37;8.30;81.20
27314;DHT22;14800;48.174;9.798;2022-11-20T15:53:35;8.30;80.90
27314;DHT22;14800;48.174;9.798;2022-11-20T15:56:01;8.30;80.80
27314;DHT22;14800;48.174;9.798;2022-11-20T15:58:27;8.20;80.80
27314;DHT22;14800;48.174;9.798;2022-11-20T16:00:52;8.20;80.70
27314;DHT22;14800;48.174;9.798;2022-11-20T16:03:18;8.20;81.50
27314;DHT22;14800;48.174;9.798;2022-11-20T16:05:44;8.20;80.80
27314;DHT22;14800;48.174;9.798;2022-11-20T16:08:10;8.20;80.90
27314;DHT22;14800;48.174;9.798;2022-11-20T16:10:36;8.10;80.80
27314;DHT22;14800;48.174;9.798;2022-11-20T16:13:02;8.10;81.00
27314;DHT22;14800;48.174;9.798;2022-11-20T16:15:51;8.10;81.00
27314;DHT22;14800;48.174;9.798;2022-11-20T16:18:20;8.10;80.80
27314;DHT22;14800;48.174;9.798;2022-11-20T16:20:50;8.10;80.80
27314;DHT22;14800;48.174;9.798;2022-11-20T16:23:15;8.00;80.80
27314;DHT22;14800;48.174;9.798;2022-11-20T16:25:42;8.00;80.70
27314;DHT22;14800;48.174;9.798;2022-11-20T16:28:08;8.00;80.80
27314;DHT22;14800;48.174;9.798;2022-11-20T16:30:34;8.00;81.00
27314;DHT22;14800;48.174;9.798;2022-11-20T16:33:00;7.90;80.90
27314;DHT22;14800;48.174;9.798;2022-11-20T16:35:27;7.90;81.80
27314;DHT22;14800;48.174;9.798;2022-11-20T16:37:54;7.90;81.80
27314;DHT22;14800;48.174;9.798;2022-11-20T16:40:19;7.90;81.00
27314;DHT22;14800;48.174;9.798;2022-11-20T16:42:45;7.90;81.10
27314;DHT22;14800;48.174;9.798;2022-11-20T16:45:11;7.90;81.00
27314;DHT22;14800;48.174;9.798;2022-11-20T16:47:36;7.90;81.00
27314;DHT22;14800;48.174;9.798;2022-11-20T16:50:04;7.90;80.80
27314;DHT22;14800;48.174;9.798;2022-11-20T16:52:30;7.90;80.70
27314;DHT22;14800;48.174;9.798;2022-11-20T16:54:56;7.90;80.60
27314;DHT22;14800;48.174;9.798;2022-11-20T16:57:22;7.90;80.50
27314;DHT22;14800;48.174;9.798;2022-11-20T16:59:48;7.90;80.40
27314;DHT22;14800;48.174;9.798;2022-11-20T17:02:14;7.80;80.20
27314;DHT22;14800;48.174;9.798;2022-11-20T17:04:41;7.80;80.30
27314;DHT22;14800;48.174;9.798;2022-11-20T17:07:07;7.80;80.20
27314;DHT22;14800;48.174;9.798;2022-11-20T17:09:33;7.80;80.30
27314;DHT22;14800;48.174;9.798;2022-11-20T17:11:58;7.80;80.30
27314;DHT22;14800;48.174;9.798;2022-11-20T17:14:24;7.80;80.30
27314;DHT22;14800;48.174;9.798;2022-11-20T17:16:50;7.80;80.40
27314;DHT22;14800;48.174;9.798;2022-11-20T17:19:15;7.80;80.30
27314;DHT22;14800;48.174;9.798;2022-11-20T17:21:41;7.80;80.10
27314;DHT22;14800;48.174;9.798;2022-11-20T17:24:09;7.80;80.00
27314;DHT22;14800;48.174;9.798;2022-11-20T17:26:36;7.80;79.90
27314;DHT22;14800;48.174;9.798;2022-11-20T17:29:04;7.80;79.90
27314;DHT22;14800;48.174;9.798;2022-11-20T17:31:32;7.80;79.80